sensor_id;sensor_type;location;lat;lon;timestamp;P1;durP1;ratioP1;P2;durP2;ratioP2
32768;SDS011;23049;54.304;8.826;2022-08-05T00:01:28;16.73;;;10.82;;
32768;SDS011;23049;54.304;8.826;2022-08-05T00:03:54;21.73;;;11.10;;
32768;SDS011;23049;54.304;8.826;2022-08-05T00:06:19;17.02;;;9.48;;
32768;SDS011;23049;54.304;8.826;2022-08-05T00:08:45;20.75;;;11.70;;
32768;SDS011;23049;54.304;8.826;2022-08-05T00:11:12;19.48;;;9.88;;
32768;SDS011;23049;54.304;8.826;2022-08-05T00:13:40;15.25;;;9.50;;
32768;SDS011;23049;54.304;8.826;2022-08-05T00:16:07;18.73;;;9.85;;
32768;SDS011;23049;54.304;8.826;2022-08-05T00:18:35;15.95;;;9.57;;
32768;SDS011;23049;54.304;8.826;2022-08-05T00:23:21;10.93;;;8.90;;
32768;SDS011;23049;54.304;8.826;2022-08-05T00:25:47;14.07;;;8.75;;
32768;SDS011;23049;54.304;8.826;2022-08-05T00:28:14;14.75;;;8.23;;
32768;SDS011;23049;54.304;8.826;2022-08-05T00:30:40;14.25;;;8.75;;
32768;SDS011;23049;54.304;8.826;2022-08-05T00:33:06;14.02;;;8.82;;
32768;SDS011;23049;54.304;8.826;2022-08-05T00:35:32;13.43;;;7.78;;
32768;SDS011;23049;54.304;8.826;2022-08-05T00:37:57;13.38;;;7.80;;
32768;SDS011;23049;54.304;8.826;2022-08-05T00:40:24;10.60;;;7.40;;
32768;SDS011;23049;54.304;8.826;2022-08-05T00:42:50;14.52;;;7.72;;
32768;SDS011;23049;54.304;8.826;2022-08-05T00:45:16;13.48;;;8.00;;
32768;SDS011;23049;54.304;8.826;2022-08-05T00:47:42;19.65;;;9.50;;
32768;SDS011;23049;54.304;8.826;2022-08-05T00:50:08;14.27;;;9.68;;
32768;SDS011;23049;54.304;8.826;2022-08-05T00:52:34;16.42;;;10.57;;
32768;SDS011;23049;54.304;8.826;2022-08-05T00:55:00;18.70;;;10.82;;
32768;SDS011;23049;54.304;8.826;2022-08-05T00:57:26;15.45;;;9.82;;
32768;SDS011;23049;54.304;8.826;2022-08-05T00:59:51;14.88;;;8.13;;
32768;SDS011;23049;54.304;8.826;2022-08-05T01:02:17;13.82;;;8.95;;
32768;SDS011;23049;54.304;8.826;2022-08-05T01:04:43;17.80;;;9.68;;
32768;SDS011;23049;54.304;8.826;2022-08-05T01:07:09;16.38;;;9.20;;
32768;SDS011;23049;54.304;8.826;2022-08-05T01:09:35;14.27;;;8.90;;
32768;SDS011;23049;54.304;8.826;2022-08-05T01:12:10;16.63;;;9.90;;
32768;SDS011;23049;54.304;8.826;2022-08-05T01:17:19;19.75;;;9.50;;
32768;SDS011;23049;54.304;8.826;2022-08-05T01:28:34;13.80;;;9.75;;
32768;SDS011;23049;54.304;8.826;2022-08-05T01:31:09;21.15;;;9.50;;
32768;SDS011;23049;54.304;8.826;2022-08-05T01:33:49;15.68;;;8.85;;
32768;SDS011;23049;54.304;8.826;2022-08-05T01:36:21;15.20;;;9.13;;
32768;SDS011;23049;54.304;8.826;2022-08-05T01:38:53;12.68;;;8.63;;
32768;SDS011;23049;54.304;8.826;2022-08-05T01:41:20;15.38;;;8.73;;
32768;SDS011;23049;54.304;8.826;2022-08-05T01:43:48;14.48;;;9.30;;
32768;SDS011;23049;54.304;8.826;2022-08-05T01:46:15;15.77;;;9.60;;
32768;SDS011;23049;54.304;8.826;2022-08-05T01:48:43;15.20;;;8.85;;
32768;SDS011;23049;54.304;8.826;2022-08-05T01:51:10;15.57;;;8.65;;
32768;SDS011;23049;54.304;8.826;2022-08-05T01:53:36;18.20;;;9.05;;
32768;SDS011;23049;54.304;8.826;2022-08-05T01:56:04;12.05;;;7.60;;
32768;SDS011;23049;54.304;8.826;2022-08-05T01:58:31;17.45;;;9.25;;
32768;SDS011;23049;54.304;8.826;2022-08-05T02:00:58;11.82;;;8.73;;
32768;SDS011;23049;54.304;8.826;2022-08-05T02:03:26;14.48;;;9.80;;
32768;SDS011;23049;54.304;8.826;2022-08-05T02:05:56;21.95;;;9.52;;
32768;SDS011;23049;54.304;8.826;2022-08-05T02:08:23;19.27;;;9.88;;
32768;SDS011;23049;54.304;8.826;2022-08-05T02:10:50;17.60;;;7.97;;
32768;SDS011;23049;54.304;8.826;2022-08-05T02:13:19;12.32;;;7.53;;
32768;SDS011;23049;54.304;8.826;2022-08-05T02:15:58;18.23;;;7.85;;
32768;SDS011;23049;54.304;8.826;2022-08-05T02:21:25;10.25;;;6.32;;
32768;SDS011;23049;54.304;8.826;2022-08-05T02:23:56;10.55;;;6.57;;
32768;SDS011;23049;54.304;8.826;2022-08-05T02:26:34;12.82;;;5.93;;
32768;SDS011;23049;54.304;8.826;2022-08-05T02:29:11;9.75;;;5.55;;
32768;SDS011;23049;54.304;8.826;2022-08-05T02:31:40;11.00;;;5.63;;
32768;SDS011;23049;54.304;8.826;2022-08-05T02:34:09;10.25;;;5.90;;
32768;SDS011;23049;54.304;8.826;2022-08-05T02:36:41;9.98;;;5.25;;
32768;SDS011;23049;54.304;8.826;2022-08-05T02:39:09;12.07;;;5.53;;
32768;SDS011;23049;54.304;8.826;2022-08-05T02:41:36;13.68;;;5.93;;
32768;SDS011;23049;54.304;8.826;2022-08-05T02:44:07;10.45;;;5.72;;
32768;SDS011;23049;54.304;8.826;2022-08-05T02:46:35;13.90;;;6.18;;
32768;SDS011;23049;54.304;8.826;2022-08-05T02:49:04;12.10;;;5.20;;
32768;SDS011;23049;54.304;8.826;2022-08-05T02:51:31;9.23;;;5.38;;
32768;SDS011;23049;54.304;8.826;2022-08-05T02:53:59;7.30;;;4.22;;
32768;SDS011;23049;54.304;8.826;2022-08-05T02:56:26;8.32;;;5.13;;
32768;SDS011;23049;54.304;8.826;2022-08-05T02:58:52;9.18;;;4.88;;
32768;SDS011;23049;54.304;8.826;2022-08-05T03:01:21;9.77;;;4.50;;
32768;SDS011;23049;54.304;8.826;2022-08-05T03:03:49;7.72;;;4.25;;
32768;SDS011;23049;54.304;8.826;2022-08-05T03:06:22;14.00;;;4.85;;
32768;SDS011;23049;54.304;8.826;2022-08-05T03:08:48;8.10;;;3.92;;
32768;SDS011;23049;54.304;8.826;2022-08-05T03:11:17;9.38;;;3.90;;
32768;SDS011;23049;54.304;8.826;2022-08-05T03:13:47;6.47;;;3.75;;
32768;SDS011;23049;54.304;8.826;2022-08-05T03:16:13;8.48;;;4.07;;
32768;SDS011;23049;54.304;8.826;2022-08-05T03:18:39;6.72;;;3.42;;
32768;SDS011;23049;54.304;8.826;2022-08-05T03:21:05;7.15;;;3.70;;
32768;SDS011;23049;54.304;8.826;2022-08-05T03:23:32;8.27;;;4.10;;
32768;SDS011;23049;54.304;8.826;2022-08-05T03:25:58;7.55;;;3.67;;
32768;SDS011;23049;54.304;8.826;2022-08-05T03:28:25;5.82;;;3.72;;
32768;SDS011;23049;54.304;8.826;2022-08-05T03:30:52;9.00;;;3.67;;
32768;SDS011;23049;54.304;8.826;2022-08-05T03:33:19;8.30;;;3.63;;
32768;SDS011;23049;54.304;8.826;2022-08-05T03:35:46;6.28;;;3.70;;
32768;SDS011;23049;54.304;8.826;2022-08-05T03:38:12;5.63;;;3.40;;
32768;SDS011;23049;54.304;8.826;2022-08-05T03:40:39;9.20;;;4.10;;
32768;SDS011;23049;54.304;8.826;2022-08-05T03:43:05;6.88;;;3.45;;
32768;SDS011;23049;54.304;8.826;2022-08-05T03:45:31;6.95;;;4.05;;
32768;SDS011;23049;54.304;8.826;2022-08-05T03:47:57;7.15;;;3.45;;
32768;SDS011;23049;54.304;8.826;2022-08-05T03:50:22;8.93;;;3.83;;
32768;SDS011;23049;54.304;8.826;2022-08-05T03:53:05;9.82;;;3.50;;
32768;SDS011;23049;54.304;8.826;2022-08-05T03:55:36;7.63;;;3.42;;
32768;SDS011;23049;54.304;8.826;2022-08-05T03:58:08;8.90;;;3.47;;
32768;SDS011;23049;54.304;8.826;2022-08-05T04:00:37;5.57;;;3.90;;
32768;SDS011;23049;54.304;8.826;2022-08-05T04:03:05;5.47;;;3.85;;
32768;SDS011;23049;54.304;8.826;2022-08-05T04:05:32;6.55;;;3.78;;
32768;SDS011;23049;54.304;8.826;2022-08-05T04:08:03;10.13;;;4.28;;
32768;SDS011;23049;54.304;8.826;2022-08-05T04:10:36;12.68;;;4.97;;
32768;SDS011;23049;54.304;8.826;2022-08-05T04:13:02;8.98;;;4.97;;
32768;SDS011;23049;54.304;8.826;2022-08-05T04:15:28;6.93;;;4.20;;
32768;SDS011;23049;54.304;8.826;2022-08-05T04:17:54;5.03;;;4.00;;
32768;SDS011;23049;54.304;8.826;2022-08-05T04:20:21;5.00;;;3.63;;
32768;SDS011;23049;54.304;8.826;2022-08-05T04:22:47;8.45;;;4.82;;
32768;SDS011;23049;54.304;8.826;2022-08-05T04:25:13;9.25;;;4.35;;
32768;SDS011;23049;54.304;8.826;2022-08-05T04:27:39;8.98;;;4.57;;
32768;SDS011;23049;54.304;8.826;2022-08-05T04:30:06;8.32;;;4.68;;
32768;SDS011;23049;54.304;8.826;2022-08-05T04:32:33;7.72;;;4.97;;
32768;SDS011;23049;54.304;8.826;2022-08-05T04:34:58;5.82;;;3.85;;
32768;SDS011;23049;54.304;8.826;2022-08-05T04:37:24;7.53;;;4.05;;
32768;SDS011;23049;54.304;8.826;2022-08-05T04:39:50;7.60;;;3.92;;
32768;SDS011;23049;54.304;8.826;2022-08-05T04:42:15;6.97;;;3.95;;
32768;SDS011;23049;54.304;8.826;2022-08-05T04:44:41;7.68;;;4.07;;
32768;SDS011;23049;54.304;8.826;2022-08-05T04:47:06;9.40;;;4.00;;
32768;SDS011;23049;54.304;8.826;2022-08-05T04:49:32;7.32;;;3.80;;
32768;SDS011;23049;54.304;8.826;2022-08-05T04:51:58;5.57;;;3.45;;
32768;SDS011;23049;54.304;8.826;2022-08-05T04:54:23;9.32;;;4.18;;
32768;SDS011;23049;54.304;8.826;2022-08-05T04:56:52;5.10;;;3.45;;
32768;SDS011;23049;54.304;8.826;2022-08-05T04:59:18;6.40;;;4.05;;
32768;SDS011;23049;54.304;8.826;2022-08-05T05:01:46;8.50;;;4.93;;
32768;SDS011;23049;54.304;8.826;2022-08-05T05:04:12;8.75;;;4.88;;
32768;SDS011;23049;54.304;8.826;2022-08-05T05:06:39;8.23;;;5.15;;
32768;SDS011;23049;54.304;8.826;2022-08-05T05:09:05;9.02;;;5.13;;
32768;SDS011;23049;54.304;8.826;2022-08-05T05:11:30;8.30;;;4.13;;
32768;SDS011;23049;54.304;8.826;2022-08-05T05:13:56;8.13;;;5.25;;
32768;SDS011;23049;54.304;8.826;2022-08-05T05:16:21;8.25;;;4.72;;
32768;SDS011;23049;54.304;8.826;2022-08-05T05:18:47;10.38;;;5.05;;
32768;SDS011;23049;54.304;8.826;2022-08-05T05:21:13;6.20;;;3.60;;
32768;SDS011;23049;54.304;8.826;2022-08-05T05:23:39;5.65;;;4.50;;
32768;SDS011;23049;54.304;8.826;2022-08-05T05:26:05;8.70;;;3.90;;
32768;SDS011;23049;54.304;8.826;2022-08-05T05:28:30;13.95;;;5.20;;
32768;SDS011;23049;54.304;8.826;2022-08-05T05:30:56;9.32;;;4.72;;
32768;SDS011;23049;54.304;8.826;2022-08-05T05:33:22;10.45;;;4.80;;
32768;SDS011;23049;54.304;8.826;2022-08-05T05:35:48;11.30;;;4.40;;
32768;SDS011;23049;54.304;8.826;2022-08-05T05:38:14;12.45;;;4.40;;
32768;SDS011;23049;54.304;8.826;2022-08-05T05:40:41;11.55;;;4.05;;
32768;SDS011;23049;54.304;8.826;2022-08-05T05:43:07;6.75;;;2.88;;
32768;SDS011;23049;54.304;8.826;2022-08-05T05:45:33;9.35;;;3.50;;
32768;SDS011;23049;54.304;8.826;2022-08-05T05:47:58;6.97;;;2.92;;
32768;SDS011;23049;54.304;8.826;2022-08-05T05:50:24;9.80;;;4.78;;
32768;SDS011;23049;54.304;8.826;2022-08-05T05:52:50;6.72;;;3.33;;
32768;SDS011;23049;54.304;8.826;2022-08-05T05:55:16;8.60;;;3.50;;
32768;SDS011;23049;54.304;8.826;2022-08-05T05:57:43;10.07;;;3.03;;
32768;SDS011;23049;54.304;8.826;2022-08-05T06:00:12;7.10;;;2.92;;
32768;SDS011;23049;54.304;8.826;2022-08-05T06:02:40;10.05;;;3.10;;
32768;SDS011;23049;54.304;8.826;2022-08-05T06:05:06;7.63;;;3.38;;
32768;SDS011;23049;54.304;8.826;2022-08-05T06:07:33;9.35;;;3.28;;
32768;SDS011;23049;54.304;8.826;2022-08-05T06:09:59;9.95;;;3.30;;
32768;SDS011;23049;54.304;8.826;2022-08-05T06:12:24;8.25;;;3.33;;
32768;SDS011;23049;54.304;8.826;2022-08-05T06:14:50;7.15;;;3.55;;
32768;SDS011;23049;54.304;8.826;2022-08-05T06:17:16;9.52;;;3.83;;
32768;SDS011;23049;54.304;8.826;2022-08-05T06:19:41;8.52;;;3.50;;
32768;SDS011;23049;54.304;8.826;2022-08-05T06:22:07;9.77;;;3.65;;
32768;SDS011;23049;54.304;8.826;2022-08-05T06:24:33;11.60;;;4.13;;
32768;SDS011;23049;54.304;8.826;2022-08-05T06:27:00;12.95;;;3.78;;
32768;SDS011;23049;54.304;8.826;2022-08-05T06:29:26;8.82;;;3.75;;
32768;SDS011;23049;54.304;8.826;2022-08-05T06:31:51;14.75;;;4.32;;
32768;SDS011;23049;54.304;8.826;2022-08-05T06:34:17;12.60;;;4.57;;
32768;SDS011;23049;54.304;8.826;2022-08-05T06:36:43;9.52;;;4.72;;
32768;SDS011;23049;54.304;8.826;2022-08-05T06:39:09;10.15;;;3.72;;
32768;SDS011;23049;54.304;8.826;2022-08-05T06:41:35;10.55;;;4.82;;
32768;SDS011;23049;54.304;8.826;2022-08-05T06:44:00;13.20;;;4.40;;
32768;SDS011;23049;54.304;8.826;2022-08-05T06:46:26;9.68;;;3.80;;
32768;SDS011;23049;54.304;8.826;2022-08-05T06:48:52;8.20;;;4.30;;
32768;SDS011;23049;54.304;8.826;2022-08-05T06:51:17;7.50;;;3.22;;
32768;SDS011;23049;54.304;8.826;2022-08-05T06:53:43;8.48;;;3.25;;
32768;SDS011;23049;54.304;8.826;2022-08-05T06:56:09;11.80;;;3.40;;
32768;SDS011;23049;54.304;8.826;2022-08-05T06:58:34;8.13;;;2.97;;
32768;SDS011;23049;54.304;8.826;2022-08-05T07:01:00;7.85;;;2.90;;
32768;SDS011;23049;54.304;8.826;2022-08-05T07:03:27;13.63;;;3.35;;
32768;SDS011;23049;54.304;8.826;2022-08-05T07:05:54;7.30;;;2.75;;
32768;SDS011;23049;54.304;8.826;2022-08-05T07:08:20;6.05;;;2.78;;
32768;SDS011;23049;54.304;8.826;2022-08-05T07:14:07;11.25;;;2.33;;
32768;SDS011;23049;54.304;8.826;2022-08-05T07:16:51;11.70;;;2.88;;
32768;SDS011;23049;54.304;8.826;2022-08-05T07:19:23;10.38;;;3.05;;
32768;SDS011;23049;54.304;8.826;2022-08-05T07:21:49;6.20;;;2.53;;
32768;SDS011;23049;54.304;8.826;2022-08-05T07:24:16;8.30;;;3.10;;
32768;SDS011;23049;54.304;8.826;2022-08-05T07:26:41;8.57;;;2.63;;
32768;SDS011;23049;54.304;8.826;2022-08-05T07:29:08;5.13;;;2.47;;
32768;SDS011;23049;54.304;8.826;2022-08-05T07:31:34;11.98;;;2.60;;
32768;SDS011;23049;54.304;8.826;2022-08-05T07:34:00;8.75;;;2.58;;
32768;SDS011;23049;54.304;8.826;2022-08-05T07:36:27;7.43;;;2.70;;
32768;SDS011;23049;54.304;8.826;2022-08-05T07:38:53;6.85;;;2.67;;
32768;SDS011;23049;54.304;8.826;2022-08-05T07:41:20;7.97;;;2.95;;
32768;SDS011;23049;54.304;8.826;2022-08-05T07:43:47;8.27;;;2.65;;
32768;SDS011;23049;54.304;8.826;2022-08-05T07:46:13;4.88;;;1.83;;
32768;SDS011;23049;54.304;8.826;2022-08-05T07:48:39;6.63;;;2.20;;
32768;SDS011;23049;54.304;8.826;2022-08-05T07:51:05;11.32;;;2.30;;
32768;SDS011;23049;54.304;8.826;2022-08-05T07:53:30;8.25;;;2.38;;
32768;SDS011;23049;54.304;8.826;2022-08-05T07:55:56;7.40;;;2.20;;
32768;SDS011;23049;54.304;8.826;2022-08-05T07:58:22;12.55;;;2.88;;
32768;SDS011;23049;54.304;8.826;2022-08-05T08:00:48;17.40;;;4.05;;
32768;SDS011;23049;54.304;8.826;2022-08-05T08:05:52;12.00;;;2.80;;
32768;SDS011;23049;54.304;8.826;2022-08-05T08:08:18;14.80;;;3.28;;
32768;SDS011;23049;54.304;8.826;2022-08-05T08:10:44;12.00;;;4.30;;
32768;SDS011;23049;54.304;8.826;2022-08-05T08:13:09;10.63;;;3.00;;
32768;SDS011;23049;54.304;8.826;2022-08-05T08:15:35;9.50;;;3.22;;
32768;SDS011;23049;54.304;8.826;2022-08-05T08:18:01;7.47;;;2.83;;
32768;SDS011;23049;54.304;8.826;2022-08-05T08:20:28;9.98;;;3.55;;
32768;SDS011;23049;54.304;8.826;2022-08-05T08:22:54;11.00;;;3.30;;
32768;SDS011;23049;54.304;8.826;2022-08-05T08:25:21;11.02;;;3.70;;
32768;SDS011;23049;54.304;8.826;2022-08-05T08:27:47;6.55;;;3.25;;
32768;SDS011;23049;54.304;8.826;2022-08-05T08:30:13;9.90;;;2.88;;
32768;SDS011;23049;54.304;8.826;2022-08-05T08:32:39;9.07;;;2.20;;
32768;SDS011;23049;54.304;8.826;2022-08-05T08:35:05;13.75;;;2.50;;
32768;SDS011;23049;54.304;8.826;2022-08-05T08:37:31;4.22;;;1.70;;
32768;SDS011;23049;54.304;8.826;2022-08-05T08:39:57;7.75;;;2.25;;
32768;SDS011;23049;54.304;8.826;2022-08-05T08:42:23;5.90;;;1.92;;
32768;SDS011;23049;54.304;8.826;2022-08-05T08:47:14;9.27;;;1.95;;
32768;SDS011;23049;54.304;8.826;2022-08-05T08:49:43;6.25;;;1.75;;
32768;SDS011;23049;54.304;8.826;2022-08-05T08:52:11;7.18;;;1.92;;
32768;SDS011;23049;54.304;8.826;2022-08-05T08:54:39;5.55;;;1.60;;
32768;SDS011;23049;54.304;8.826;2022-08-05T08:57:05;6.90;;;1.80;;
32768;SDS011;23049;54.304;8.826;2022-08-05T08:59:31;8.68;;;2.17;;
32768;SDS011;23049;54.304;8.826;2022-08-05T09:01:57;8.45;;;1.67;;
32768;SDS011;23049;54.304;8.826;2022-08-05T09:04:26;6.28;;;1.88;;
32768;SDS011;23049;54.304;8.826;2022-08-05T09:06:51;3.88;;;1.50;;
32768;SDS011;23049;54.304;8.826;2022-08-05T09:09:17;10.10;;;2.10;;
32768;SDS011;23049;54.304;8.826;2022-08-05T09:11:42;7.10;;;2.10;;
32768;SDS011;23049;54.304;8.826;2022-08-05T09:14:09;7.57;;;2.00;;
32768;SDS011;23049;54.304;8.826;2022-08-05T09:16:36;7.43;;;2.00;;
32768;SDS011;23049;54.304;8.826;2022-08-05T09:19:03;7.50;;;1.83;;
32768;SDS011;23049;54.304;8.826;2022-08-05T09:21:28;7.20;;;1.73;;
32768;SDS011;23049;54.304;8.826;2022-08-05T09:24:06;7.55;;;2.50;;
32768;SDS011;23049;54.304;8.826;2022-08-05T09:26:33;6.63;;;1.75;;
32768;SDS011;23049;54.304;8.826;2022-08-05T09:29:01;6.57;;;2.00;;
32768;SDS011;23049;54.304;8.826;2022-08-05T09:31:32;4.20;;;1.50;;
32768;SDS011;23049;54.304;8.826;2022-08-05T09:33:59;7.97;;;1.88;;
32768;SDS011;23049;54.304;8.826;2022-08-05T09:36:40;8.43;;;1.70;;
32768;SDS011;23049;54.304;8.826;2022-08-05T09:39:14;6.75;;;1.75;;
32768;SDS011;23049;54.304;8.826;2022-08-05T09:42:01;7.35;;;2.00;;
32768;SDS011;23049;54.304;8.826;2022-08-05T09:44:35;11.57;;;2.40;;
32768;SDS011;23049;54.304;8.826;2022-08-05T09:47:12;3.55;;;1.60;;
32768;SDS011;23049;54.304;8.826;2022-08-05T09:49:47;6.57;;;2.08;;
32768;SDS011;23049;54.304;8.826;2022-08-05T09:52:28;5.97;;;1.70;;
32768;SDS011;23049;54.304;8.826;2022-08-05T09:57:35;6.13;;;1.73;;
32768;SDS011;23049;54.304;8.826;2022-08-05T10:00:13;7.57;;;1.90;;
32768;SDS011;23049;54.304;8.826;2022-08-05T10:02:44;4.40;;;1.85;;
32768;SDS011;23049;54.304;8.826;2022-08-05T10:05:15;8.32;;;1.80;;
32768;SDS011;23049;54.304;8.826;2022-08-05T10:13:01;9.38;;;2.25;;
32768;SDS011;23049;54.304;8.826;2022-08-05T10:15:36;4.80;;;1.80;;
32768;SDS011;23049;54.304;8.826;2022-08-05T10:23:10;5.88;;;1.92;;
32768;SDS011;23049;54.304;8.826;2022-08-05T10:25:37;4.85;;;1.65;;
32768;SDS011;23049;54.304;8.826;2022-08-05T10:28:04;5.50;;;1.88;;
32768;SDS011;23049;54.304;8.826;2022-08-05T10:30:30;6.75;;;1.90;;
32768;SDS011;23049;54.304;8.826;2022-08-05T10:35:15;7.65;;;2.20;;
32768;SDS011;23049;54.304;8.826;2022-08-05T10:37:41;3.83;;;1.88;;
32768;SDS011;23049;54.304;8.826;2022-08-05T10:40:12;6.50;;;1.92;;
32768;SDS011;23049;54.304;8.826;2022-08-05T10:42:42;6.20;;;2.03;;
32768;SDS011;23049;54.304;8.826;2022-08-05T10:45:14;8.50;;;2.17;;
32768;SDS011;23049;54.304;8.826;2022-08-05T10:47:40;7.25;;;3.10;;
32768;SDS011;23049;54.304;8.826;2022-08-05T10:50:09;5.40;;;2.28;;
32768;SDS011;23049;54.304;8.826;2022-08-05T10:52:45;10.35;;;2.45;;
32768;SDS011;23049;54.304;8.826;2022-08-05T10:55:21;4.43;;;2.17;;
32768;SDS011;23049;54.304;8.826;2022-08-05T10:57:47;9.60;;;2.78;;
32768;SDS011;23049;54.304;8.826;2022-08-05T11:05:27;4.05;;;2.20;;
32768;SDS011;23049;54.304;8.826;2022-08-05T11:07:54;9.13;;;1.90;;
32768;SDS011;23049;54.304;8.826;2022-08-05T11:10:26;7.25;;;1.75;;
32768;SDS011;23049;54.304;8.826;2022-08-05T11:12:52;4.32;;;1.58;;
32768;SDS011;23049;54.304;8.826;2022-08-05T11:17:52;3.65;;;1.70;;
32768;SDS011;23049;54.304;8.826;2022-08-05T11:23:27;5.68;;;1.60;;
32768;SDS011;23049;54.304;8.826;2022-08-05T11:26:26;5.70;;;1.33;;
32768;SDS011;23049;54.304;8.826;2022-08-05T11:28:50;5.30;;;1.55;;
32768;SDS011;23049;54.304;8.826;2022-08-05T11:31:17;6.53;;;1.45;;
32768;SDS011;23049;54.304;8.826;2022-08-05T11:36:38;4.32;;;1.45;;
32768;SDS011;23049;54.304;8.826;2022-08-05T11:39:09;3.40;;;1.35;;
32768;SDS011;23049;54.304;8.826;2022-08-05T11:41:36;5.43;;;1.52;;
32768;SDS011;23049;54.304;8.826;2022-08-05T11:44:12;3.72;;;1.58;;
32768;SDS011;23049;54.304;8.826;2022-08-05T11:46:58;4.53;;;1.40;;
32768;SDS011;23049;54.304;8.826;2022-08-05T11:49:23;3.55;;;1.58;;
32768;SDS011;23049;54.304;8.826;2022-08-05T11:51:50;3.38;;;1.17;;
32768;SDS011;23049;54.304;8.826;2022-08-05T11:56:58;5.05;;;1.67;;
32768;SDS011;23049;54.304;8.826;2022-08-05T11:59:26;2.92;;;1.42;;
32768;SDS011;23049;54.304;8.826;2022-08-05T12:04:23;3.05;;;1.35;;
32768;SDS011;23049;54.304;8.826;2022-08-05T12:06:51;8.40;;;1.83;;
32768;SDS011;23049;54.304;8.826;2022-08-05T12:09:17;5.15;;;1.50;;
32768;SDS011;23049;54.304;8.826;2022-08-05T12:11:47;5.80;;;1.38;;
32768;SDS011;23049;54.304;8.826;2022-08-05T12:14:13;5.60;;;1.50;;
32768;SDS011;23049;54.304;8.826;2022-08-05T12:16:42;7.53;;;1.63;;
32768;SDS011;23049;54.304;8.826;2022-08-05T12:19:11;3.47;;;1.50;;
32768;SDS011;23049;54.304;8.826;2022-08-05T12:21:44;3.25;;;1.20;;
32768;SDS011;23049;54.304;8.826;2022-08-05T12:27:03;4.70;;;1.27;;
32768;SDS011;23049;54.304;8.826;2022-08-05T12:29:29;4.28;;;1.20;;
32768;SDS011;23049;54.304;8.826;2022-08-05T12:31:55;5.82;;;1.55;;
32768;SDS011;23049;54.304;8.826;2022-08-05T12:34:30;5.72;;;1.60;;
32768;SDS011;23049;54.304;8.826;2022-08-05T12:36:58;4.65;;;1.30;;
32768;SDS011;23049;54.304;8.826;2022-08-05T12:39:26;5.00;;;1.23;;
32768;SDS011;23049;54.304;8.826;2022-08-05T12:41:58;8.65;;;2.10;;
32768;SDS011;23049;54.304;8.826;2022-08-05T12:44:25;4.68;;;1.27;;
32768;SDS011;23049;54.304;8.826;2022-08-05T12:46:52;3.63;;;1.30;;
32768;SDS011;23049;54.304;8.826;2022-08-05T12:49:19;3.03;;;1.52;;
32768;SDS011;23049;54.304;8.826;2022-08-05T12:51:50;5.93;;;1.30;;
32768;SDS011;23049;54.304;8.826;2022-08-05T12:54:29;4.70;;;1.48;;
32768;SDS011;23049;54.304;8.826;2022-08-05T12:56:57;7.38;;;1.63;;
32768;SDS011;23049;54.304;8.826;2022-08-05T12:59:27;1.90;;;0.90;;
32768;SDS011;23049;54.304;8.826;2022-08-05T13:02:03;4.28;;;1.13;;
32768;SDS011;23049;54.304;8.826;2022-08-05T13:04:31;8.20;;;1.60;;
32768;SDS011;23049;54.304;8.826;2022-08-05T13:06:59;3.55;;;1.45;;
32768;SDS011;23049;54.304;8.826;2022-08-05T13:09:27;2.38;;;1.00;;
32768;SDS011;23049;54.304;8.826;2022-08-05T13:12:00;1.90;;;0.88;;
32768;SDS011;23049;54.304;8.826;2022-08-05T13:17:52;3.83;;;1.10;;
32768;SDS011;23049;54.304;8.826;2022-08-05T13:20:19;4.38;;;1.20;;
32768;SDS011;23049;54.304;8.826;2022-08-05T13:22:49;4.47;;;1.30;;
32768;SDS011;23049;54.304;8.826;2022-08-05T13:25:17;2.78;;;1.20;;
32768;SDS011;23049;54.304;8.826;2022-08-05T13:30:14;4.32;;;1.20;;
32768;SDS011;23049;54.304;8.826;2022-08-05T13:32:41;3.20;;;1.10;;
32768;SDS011;23049;54.304;8.826;2022-08-05T13:35:11;2.90;;;1.20;;
32768;SDS011;23049;54.304;8.826;2022-08-05T13:37:38;3.20;;;1.02;;
32768;SDS011;23049;54.304;8.826;2022-08-05T13:40:04;2.08;;;1.00;;
32768;SDS011;23049;54.304;8.826;2022-08-05T13:42:30;3.35;;;1.48;;
32768;SDS011;23049;54.304;8.826;2022-08-05T13:44:56;4.15;;;1.00;;
32768;SDS011;23049;54.304;8.826;2022-08-05T13:47:22;3.30;;;1.40;;
32768;SDS011;23049;54.304;8.826;2022-08-05T13:49:48;2.55;;;1.00;;
32768;SDS011;23049;54.304;8.826;2022-08-05T13:52:15;3.75;;;1.23;;
32768;SDS011;23049;54.304;8.826;2022-08-05T13:54:43;5.47;;;1.00;;
32768;SDS011;23049;54.304;8.826;2022-08-05T13:57:09;5.00;;;1.30;;
32768;SDS011;23049;54.304;8.826;2022-08-05T13:59:36;3.22;;;1.38;;
32768;SDS011;23049;54.304;8.826;2022-08-05T14:02:03;2.45;;;1.20;;
32768;SDS011;23049;54.304;8.826;2022-08-05T14:04:31;5.90;;;1.75;;
32768;SDS011;23049;54.304;8.826;2022-08-05T14:07:20;5.28;;;1.30;;
32768;SDS011;23049;54.304;8.826;2022-08-05T14:09:47;3.13;;;1.40;;
32768;SDS011;23049;54.304;8.826;2022-08-05T14:12:13;5.03;;;1.20;;
32768;SDS011;23049;54.304;8.826;2022-08-05T14:14:39;6.63;;;1.60;;
32768;SDS011;23049;54.304;8.826;2022-08-05T14:17:05;4.65;;;1.10;;
32768;SDS011;23049;54.304;8.826;2022-08-05T14:19:31;2.08;;;1.30;;
32768;SDS011;23049;54.304;8.826;2022-08-05T14:21:56;2.85;;;1.80;;
32768;SDS011;23049;54.304;8.826;2022-08-05T14:24:22;7.95;;;1.83;;
32768;SDS011;23049;54.304;8.826;2022-08-05T14:26:48;8.43;;;1.65;;
32768;SDS011;23049;54.304;8.826;2022-08-05T14:29:13;7.70;;;2.38;;
32768;SDS011;23049;54.304;8.826;2022-08-05T14:31:39;7.55;;;2.13;;
32768;SDS011;23049;54.304;8.826;2022-08-05T14:34:06;5.25;;;1.85;;
32768;SDS011;23049;54.304;8.826;2022-08-05T14:39:07;2.45;;;1.50;;
32768;SDS011;23049;54.304;8.826;2022-08-05T14:41:33;4.55;;;1.83;;
32768;SDS011;23049;54.304;8.826;2022-08-05T14:43:59;4.07;;;1.58;;
32768;SDS011;23049;54.304;8.826;2022-08-05T14:46:26;7.85;;;1.60;;
32768;SDS011;23049;54.304;8.826;2022-08-05T14:48:52;5.65;;;2.03;;
32768;SDS011;23049;54.304;8.826;2022-08-05T14:51:19;6.72;;;1.65;;
32768;SDS011;23049;54.304;8.826;2022-08-05T14:56:47;5.00;;;1.45;;
32768;SDS011;23049;54.304;8.826;2022-08-05T14:59:13;7.00;;;1.33;;
32768;SDS011;23049;54.304;8.826;2022-08-05T15:01:39;6.90;;;1.27;;
32768;SDS011;23049;54.304;8.826;2022-08-05T15:04:05;6.82;;;1.58;;
32768;SDS011;23049;54.304;8.826;2022-08-05T15:06:34;3.72;;;1.55;;
32768;SDS011;23049;54.304;8.826;2022-08-05T15:09:00;3.15;;;1.02;;
32768;SDS011;23049;54.304;8.826;2022-08-05T15:11:26;3.50;;;1.08;;
32768;SDS011;23049;54.304;8.826;2022-08-05T15:13:52;5.88;;;1.42;;
32768;SDS011;23049;54.304;8.826;2022-08-05T15:16:18;5.88;;;1.00;;
32768;SDS011;23049;54.304;8.826;2022-08-05T15:18:43;5.07;;;1.45;;
32768;SDS011;23049;54.304;8.826;2022-08-05T15:21:09;3.67;;;1.20;;
32768;SDS011;23049;54.304;8.826;2022-08-05T15:23:35;5.68;;;1.67;;
32768;SDS011;23049;54.304;8.826;2022-08-05T15:26:01;7.57;;;1.70;;
32768;SDS011;23049;54.304;8.826;2022-08-05T15:28:26;5.22;;;1.27;;
32768;SDS011;23049;54.304;8.826;2022-08-05T15:30:52;6.82;;;1.63;;
32768;SDS011;23049;54.304;8.826;2022-08-05T15:33:20;5.53;;;1.23;;
32768;SDS011;23049;54.304;8.826;2022-08-05T15:35:49;5.97;;;1.20;;
32768;SDS011;23049;54.304;8.826;2022-08-05T15:38:15;4.30;;;1.10;;
32768;SDS011;23049;54.304;8.826;2022-08-05T15:40:41;2.75;;;1.30;;
32768;SDS011;23049;54.304;8.826;2022-08-05T15:43:07;4.53;;;1.13;;
32768;SDS011;23049;54.304;8.826;2022-08-05T15:45:32;3.08;;;1.05;;
32768;SDS011;23049;54.304;8.826;2022-08-05T15:47:58;1.75;;;0.82;;
32768;SDS011;23049;54.304;8.826;2022-08-05T15:50:27;2.60;;;1.02;;
32768;SDS011;23049;54.304;8.826;2022-08-05T15:55:17;3.78;;;1.20;;
32768;SDS011;23049;54.304;8.826;2022-08-05T15:57:43;5.07;;;0.95;;
32768;SDS011;23049;54.304;8.826;2022-08-05T16:00:10;2.72;;;0.90;;
32768;SDS011;23049;54.304;8.826;2022-08-05T16:02:36;2.83;;;0.90;;